sensor_id;sensor_type;location;lat;lon;timestamp;P1;durP1;ratioP1;P2;durP2;ratioP2
73670;SDS011;61968;48.178;11.566;2023-03-01T00:00:03;14.00;;;7.47;;
73670;SDS011;61968;48.178;11.566;2023-03-01T00:02:32;16.55;;;7.85;;
73670;SDS011;61968;48.178;11.566;2023-03-01T00:04:58;18.73;;;7.75;;
73670;SDS011;61968;48.178;11.566;2023-03-01T00:07:26;13.40;;;7.30;;
73670;SDS011;61968;48.178;11.566;2023-03-01T00:09:52;18.00;;;8.73;;
73670;SDS011;61968;48.178;11.566;2023-03-01T00:12:19;17.52;;;8.30;;
73670;SDS011;61968;48.178;11.566;2023-03-01T00:14:45;12.52;;;7.07;;
73670;SDS011;61968;48.178;11.566;2023-03-01T00:17:12;17.13;;;8.20;;
73670;SDS011;61968;48.178;11.566;2023-03-01T00:19:38;18.13;;;8.15;;
73670;SDS011;61968;48.178;11.566;2023-03-01T00:24:33;13.15;;;7.18;;
73670;SDS011;61968;48.178;11.566;2023-03-01T00:26:59;11.25;;;6.03;;
73670;SDS011;61968;48.178;11.566;2023-03-01T00:29:26;17.08;;;8.10;;
73670;SDS011;61968;48.178;11.566;2023-03-01T00:31:52;18.40;;;8.13;;
73670;SDS011;61968;48.178;11.566;2023-03-01T00:34:19;12.30;;;6.93;;
73670;SDS011;61968;48.178;11.566;2023-03-01T00:36:45;15.30;;;8.02;;
73670;SDS011;61968;48.178;11.566;2023-03-01T00:41:41;18.30;;;7.68;;
73670;SDS011;61968;48.178;11.566;2023-03-01T00:44:08;14.07;;;6.55;;
73670;SDS011;61968;48.178;11.566;2023-03-01T00:46:34;13.23;;;6.88;;
73670;SDS011;61968;48.178;11.566;2023-03-01T00:49:01;14.38;;;8.57;;
73670;SDS011;61968;48.178;11.566;2023-03-01T00:51:29;18.42;;;8.07;;
73670;SDS011;61968;48.178;11.566;2023-03-01T00:53:57;11.05;;;7.15;;
73670;SDS011;61968;48.178;11.566;2023-03-01T00:56:25;16.23;;;8.85;;
73670;SDS011;61968;48.178;11.566;2023-03-01T00:58:53;11.98;;;7.22;;
73670;SDS011;61968;48.178;11.566;2023-03-01T01:01:20;14.82;;;7.72;;
73670;SDS011;61968;48.178;11.566;2023-03-01T01:03:49;15.70;;;8.05;;
73670;SDS011;61968;48.178;11.566;2023-03-01T01:06:18;18.35;;;8.85;;
73670;SDS011;61968;48.178;11.566;2023-03-01T01:08:46;16.70;;;8.07;;
73670;SDS011;61968;48.178;11.566;2023-03-01T01:11:13;12.02;;;7.50;;
73670;SDS011;61968;48.178;11.566;2023-03-01T01:13:41;13.65;;;8.20;;
73670;SDS011;61968;48.178;11.566;2023-03-01T01:16:10;13.93;;;7.70;;
73670;SDS011;61968;48.178;11.566;2023-03-01T01:18:37;15.98;;;9.05;;
73670;SDS011;61968;48.178;11.566;2023-03-01T01:21:06;14.10;;;7.10;;
73670;SDS011;61968;48.178;11.566;2023-03-01T01:23:33;14.85;;;8.02;;
73670;SDS011;61968;48.178;11.566;2023-03-01T01:26:03;14.70;;;8.43;;
73670;SDS011;61968;48.178;11.566;2023-03-01T01:28:30;20.98;;;7.43;;
73670;SDS011;61968;48.178;11.566;2023-03-01T01:30:57;17.38;;;7.68;;
73670;SDS011;61968;48.178;11.566;2023-03-01T01:33:24;15.02;;;8.60;;
73670;SDS011;61968;48.178;11.566;2023-03-01T01:35:51;16.02;;;8.52;;
73670;SDS011;61968;48.178;11.566;2023-03-01T01:38:18;14.27;;;8.02;;
73670;SDS011;61968;48.178;11.566;2023-03-01T01:40:46;16.27;;;8.48;;
73670;SDS011;61968;48.178;11.566;2023-03-01T01:43:16;13.35;;;7.25;;
73670;SDS011;61968;48.178;11.566;2023-03-01T01:45:45;13.95;;;7.93;;
73670;SDS011;61968;48.178;11.566;2023-03-01T01:50:41;15.60;;;7.60;;
73670;SDS011;61968;48.178;11.566;2023-03-01T01:53:10;18.95;;;8.65;;
73670;SDS011;61968;48.178;11.566;2023-03-01T01:55:41;15.77;;;8.48;;
73670;SDS011;61968;48.178;11.566;2023-03-01T01:58:11;14.50;;;7.90;;
73670;SDS011;61968;48.178;11.566;2023-03-01T02:00:43;13.70;;;8.20;;
73670;SDS011;61968;48.178;11.566;2023-03-01T02:05:39;15.38;;;7.82;;
73670;SDS011;61968;48.178;11.566;2023-03-01T02:08:13;14.15;;;7.45;;
73670;SDS011;61968;48.178;11.566;2023-03-01T02:10:42;15.25;;;8.32;;
73670;SDS011;61968;48.178;11.566;2023-03-01T02:13:08;14.55;;;8.00;;
73670;SDS011;61968;48.178;11.566;2023-03-01T02:15:37;16.27;;;7.53;;
73670;SDS011;61968;48.178;11.566;2023-03-01T02:18:06;13.77;;;7.22;;
73670;SDS011;61968;48.178;11.566;2023-03-01T02:20:34;18.92;;;8.02;;
73670;SDS011;61968;48.178;11.566;2023-03-01T02:25:37;18.17;;;7.75;;
73670;SDS011;61968;48.178;11.566;2023-03-01T02:28:21;13.23;;;6.75;;
73670;SDS011;61968;48.178;11.566;2023-03-01T02:30:52;12.20;;;7.00;;
73670;SDS011;61968;48.178;11.566;2023-03-01T02:33:38;12.63;;;7.22;;
73670;SDS011;61968;48.178;11.566;2023-03-01T02:36:07;17.60;;;7.88;;
73670;SDS011;61968;48.178;11.566;2023-03-01T02:38:38;16.10;;;8.02;;
73670;SDS011;61968;48.178;11.566;2023-03-01T02:41:05;15.48;;;7.80;;
73670;SDS011;61968;48.178;11.566;2023-03-01T02:43:35;16.52;;;8.13;;
73670;SDS011;61968;48.178;11.566;2023-03-01T02:46:03;15.00;;;7.88;;
73670;SDS011;61968;48.178;11.566;2023-03-01T02:48:39;16.45;;;7.47;;
73670;SDS011;61968;48.178;11.566;2023-03-01T02:51:10;12.57;;;7.20;;
73670;SDS011;61968;48.178;11.566;2023-03-01T02:53:48;19.20;;;8.32;;
73670;SDS011;61968;48.178;11.566;2023-03-01T02:56:19;13.10;;;7.40;;
73670;SDS011;61968;48.178;11.566;2023-03-01T02:58:47;14.82;;;8.65;;
73670;SDS011;61968;48.178;11.566;2023-03-01T03:01:16;14.77;;;7.88;;
73670;SDS011;61968;48.178;11.566;2023-03-01T03:03:43;13.73;;;7.47;;
73670;SDS011;61968;48.178;11.566;2023-03-01T03:06:10;18.30;;;9.10;;
73670;SDS011;61968;48.178;11.566;2023-03-01T03:08:36;17.65;;;8.77;;
73670;SDS011;61968;48.178;11.566;2023-03-01T03:11:03;17.73;;;7.38;;
73670;SDS011;61968;48.178;11.566;2023-03-01T03:13:30;16.40;;;8.50;;
73670;SDS011;61968;48.178;11.566;2023-03-01T03:15:58;15.32;;;8.68;;
73670;SDS011;61968;48.178;11.566;2023-03-01T03:18:25;13.52;;;8.00;;
73670;SDS011;61968;48.178;11.566;2023-03-01T03:20:51;15.93;;;7.60;;
73670;SDS011;61968;48.178;11.566;2023-03-01T03:23:19;16.33;;;8.55;;
73670;SDS011;61968;48.178;11.566;2023-03-01T03:25:47;15.40;;;7.88;;
73670;SDS011;61968;48.178;11.566;2023-03-01T03:28:14;16.58;;;8.07;;
73670;SDS011;61968;48.178;11.566;2023-03-01T03:30:42;14.13;;;7.68;;
73670;SDS011;61968;48.178;11.566;2023-03-01T03:33:11;16.30;;;8.05;;
73670;SDS011;61968;48.178;11.566;2023-03-01T03:35:39;17.63;;;7.35;;
73670;SDS011;61968;48.178;11.566;2023-03-01T03:38:08;15.93;;;7.88;;
73670;SDS011;61968;48.178;11.566;2023-03-01T03:40:41;16.85;;;7.47;;
73670;SDS011;61968;48.178;11.566;2023-03-01T03:43:10;13.25;;;7.40;;
73670;SDS011;61968;48.178;11.566;2023-03-01T03:45:38;14.18;;;7.25;;
73670;SDS011;61968;48.178;11.566;2023-03-01T03:50:38;15.35;;;7.40;;
73670;SDS011;61968;48.178;11.566;2023-03-01T03:53:05;13.15;;;7.68;;
73670;SDS011;61968;48.178;11.566;2023-03-01T03:55:34;15.85;;;7.45;;
73670;SDS011;61968;48.178;11.566;2023-03-01T03:58:04;17.63;;;7.93;;
73670;SDS011;61968;48.178;11.566;2023-03-01T04:00:32;13.60;;;7.80;;
73670;SDS011;61968;48.178;11.566;2023-03-01T04:03:00;13.38;;;6.65;;
73670;SDS011;61968;48.178;11.566;2023-03-01T04:05:28;13.35;;;7.40;;
73670;SDS011;61968;48.178;11.566;2023-03-01T04:07:55;15.43;;;7.57;;
73670;SDS011;61968;48.178;11.566;2023-03-01T04:10:33;16.80;;;8.27;;
73670;SDS011;61968;48.178;11.566;2023-03-01T04:13:01;12.73;;;7.63;;
73670;SDS011;61968;48.178;11.566;2023-03-01T04:17:54;14.02;;;6.93;;
73670;SDS011;61968;48.178;11.566;2023-03-01T04:20:22;13.63;;;7.47;;
73670;SDS011;61968;48.178;11.566;2023-03-01T04:22:52;15.95;;;7.90;;
73670;SDS011;61968;48.178;11.566;2023-03-01T04:25:22;13.48;;;6.97;;
73670;SDS011;61968;48.178;11.566;2023-03-01T04:27:49;16.38;;;8.55;;
73670;SDS011;61968;48.178;11.566;2023-03-01T04:30:15;21.42;;;12.07;;
73670;SDS011;61968;48.178;11.566;2023-03-01T04:32:42;50.13;;;25.67;;
73670;SDS011;61968;48.178;11.566;2023-03-01T04:35:08;38.20;;;19.55;;
73670;SDS011;61968;48.178;11.566;2023-03-01T04:37:35;56.85;;;29.40;;
73670;SDS011;61968;48.178;11.566;2023-03-01T04:40:03;40.08;;;20.95;;
73670;SDS011;61968;48.178;11.566;2023-03-01T04:42:38;23.73;;;12.27;;
73670;SDS011;61968;48.178;11.566;2023-03-01T04:45:05;13.55;;;7.55;;
73670;SDS011;61968;48.178;11.566;2023-03-01T04:47:38;12.48;;;7.63;;
73670;SDS011;61968;48.178;11.566;2023-03-01T04:50:05;16.13;;;9.07;;
73670;SDS011;61968;48.178;11.566;2023-03-01T04:52:32;14.55;;;8.50;;
73670;SDS011;61968;48.178;11.566;2023-03-01T04:54:59;14.15;;;8.02;;
73670;SDS011;61968;48.178;11.566;2023-03-01T04:57:26;14.40;;;7.97;;
73670;SDS011;61968;48.178;11.566;2023-03-01T04:59:53;13.70;;;7.90;;
73670;SDS011;61968;48.178;11.566;2023-03-01T05:02:19;19.45;;;9.05;;
73670;SDS011;61968;48.178;11.566;2023-03-01T05:04:46;15.60;;;9.35;;
73670;SDS011;61968;48.178;11.566;2023-03-01T05:09:44;12.75;;;7.03;;
73670;SDS011;61968;48.178;11.566;2023-03-01T05:12:11;16.90;;;8.48;;
73670;SDS011;61968;48.178;11.566;2023-03-01T05:17:05;15.52;;;7.30;;
73670;SDS011;61968;48.178;11.566;2023-03-01T05:19:32;12.07;;;6.30;;
73670;SDS011;61968;48.178;11.566;2023-03-01T05:21:58;20.17;;;8.23;;
73670;SDS011;61968;48.178;11.566;2023-03-01T05:24:29;13.68;;;7.80;;
73670;SDS011;61968;48.178;11.566;2023-03-01T05:26:56;18.17;;;8.45;;
73670;SDS011;61968;48.178;11.566;2023-03-01T05:29:23;16.50;;;8.93;;
73670;SDS011;61968;48.178;11.566;2023-03-01T05:31:53;13.75;;;7.13;;
73670;SDS011;61968;48.178;11.566;2023-03-01T05:34:22;15.63;;;7.95;;
73670;SDS011;61968;48.178;11.566;2023-03-01T05:36:50;13.35;;;7.15;;
73670;SDS011;61968;48.178;11.566;2023-03-01T05:39:18;14.55;;;8.35;;
73670;SDS011;61968;48.178;11.566;2023-03-01T05:41:47;16.55;;;8.27;;
73670;SDS011;61968;48.178;11.566;2023-03-01T05:46:40;15.18;;;7.88;;
73670;SDS011;61968;48.178;11.566;2023-03-01T05:49:08;14.63;;;7.68;;
73670;SDS011;61968;48.178;11.566;2023-03-01T05:51:35;23.80;;;8.85;;
73670;SDS011;61968;48.178;11.566;2023-03-01T05:54:01;15.05;;;9.30;;
73670;SDS011;61968;48.178;11.566;2023-03-01T05:56:31;16.50;;;7.95;;
73670;SDS011;61968;48.178;11.566;2023-03-01T05:58:58;16.75;;;8.38;;
73670;SDS011;61968;48.178;11.566;2023-03-01T06:01:25;16.77;;;7.35;;
73670;SDS011;61968;48.178;11.566;2023-03-01T06:03:51;12.90;;;7.28;;
73670;SDS011;61968;48.178;11.566;2023-03-01T06:06:19;16.50;;;7.57;;
73670;SDS011;61968;48.178;11.566;2023-03-01T06:08:45;19.27;;;8.70;;
73670;SDS011;61968;48.178;11.566;2023-03-01T06:11:12;16.27;;;8.35;;
73670;SDS011;61968;48.178;11.566;2023-03-01T06:13:38;17.52;;;7.95;;
73670;SDS011;61968;48.178;11.566;2023-03-01T06:16:05;19.85;;;8.95;;
73670;SDS011;61968;48.178;11.566;2023-03-01T06:18:32;15.48;;;8.10;;
73670;SDS011;61968;48.178;11.566;2023-03-01T06:20:58;21.73;;;9.02;;
73670;SDS011;61968;48.178;11.566;2023-03-01T06:23:26;17.02;;;8.30;;
73670;SDS011;61968;48.178;11.566;2023-03-01T06:25:52;23.48;;;9.93;;
73670;SDS011;61968;48.178;11.566;2023-03-01T06:28:19;26.98;;;10.95;;
73670;SDS011;61968;48.178;11.566;2023-03-01T06:30:45;17.70;;;8.20;;
73670;SDS011;61968;48.178;11.566;2023-03-01T06:33:12;15.90;;;8.18;;
73670;SDS011;61968;48.178;11.566;2023-03-01T06:35:40;16.45;;;8.30;;
73670;SDS011;61968;48.178;11.566;2023-03-01T06:38:06;17.92;;;8.45;;
73670;SDS011;61968;48.178;11.566;2023-03-01T06:40:34;19.60;;;8.05;;
73670;SDS011;61968;48.178;11.566;2023-03-01T06:43:01;15.38;;;7.72;;
73670;SDS011;61968;48.178;11.566;2023-03-01T06:48:00;18.52;;;6.93;;
73670;SDS011;61968;48.178;11.566;2023-03-01T06:50:28;14.57;;;8.45;;
73670;SDS011;61968;48.178;11.566;2023-03-01T06:52:55;18.77;;;10.30;;
73670;SDS011;61968;48.178;11.566;2023-03-01T06:55:22;14.00;;;7.07;;
73670;SDS011;61968;48.178;11.566;2023-03-01T06:57:49;16.20;;;7.35;;
73670;SDS011;61968;48.178;11.566;2023-03-01T07:00:20;18.95;;;9.38;;
73670;SDS011;61968;48.178;11.566;2023-03-01T07:02:47;18.58;;;9.25;;
73670;SDS011;61968;48.178;11.566;2023-03-01T07:05:14;19.15;;;8.52;;
73670;SDS011;61968;48.178;11.566;2023-03-01T07:07:40;17.98;;;9.13;;
73670;SDS011;61968;48.178;11.566;2023-03-01T07:10:07;17.77;;;8.10;;
73670;SDS011;61968;48.178;11.566;2023-03-01T07:12:35;18.63;;;8.55;;
73670;SDS011;61968;48.178;11.566;2023-03-01T07:15:03;20.08;;;9.13;;
73670;SDS011;61968;48.178;11.566;2023-03-01T07:17:31;14.05;;;8.30;;
73670;SDS011;61968;48.178;11.566;2023-03-01T07:19:57;15.80;;;9.20;;
73670;SDS011;61968;48.178;11.566;2023-03-01T07:22:24;20.48;;;8.82;;
73670;SDS011;61968;48.178;11.566;2023-03-01T07:24:50;16.92;;;8.30;;
73670;SDS011;61968;48.178;11.566;2023-03-01T07:27:17;16.02;;;8.35;;
73670;SDS011;61968;48.178;11.566;2023-03-01T07:29:43;22.15;;;8.48;;
73670;SDS011;61968;48.178;11.566;2023-03-01T07:32:11;19.52;;;9.60;;
73670;SDS011;61968;48.178;11.566;2023-03-01T07:34:38;16.23;;;7.78;;
73670;SDS011;61968;48.178;11.566;2023-03-01T07:37:05;13.85;;;6.78;;
73670;SDS011;61968;48.178;11.566;2023-03-01T07:39:31;14.10;;;7.63;;
73670;SDS011;61968;48.178;11.566;2023-03-01T07:41:58;19.02;;;8.73;;
73670;SDS011;61968;48.178;11.566;2023-03-01T07:44:25;18.70;;;8.52;;
73670;SDS011;61968;48.178;11.566;2023-03-01T07:46:51;20.90;;;8.55;;
73670;SDS011;61968;48.178;11.566;2023-03-01T07:49:22;17.10;;;9.15;;
73670;SDS011;61968;48.178;11.566;2023-03-01T07:51:49;18.98;;;9.45;;
73670;SDS011;61968;48.178;11.566;2023-03-01T07:54:15;24.92;;;11.20;;
73670;SDS011;61968;48.178;11.566;2023-03-01T07:56:43;13.88;;;7.93;;
73670;SDS011;61968;48.178;11.566;2023-03-01T07:59:09;15.82;;;8.50;;
73670;SDS011;61968;48.178;11.566;2023-03-01T08:01:36;17.00;;;8.65;;
73670;SDS011;61968;48.178;11.566;2023-03-01T08:04:02;18.50;;;9.05;;
73670;SDS011;61968;48.178;11.566;2023-03-01T08:06:33;17.98;;;9.02;;
73670;SDS011;61968;48.178;11.566;2023-03-01T08:09:00;20.15;;;8.18;;
73670;SDS011;61968;48.178;11.566;2023-03-01T08:11:28;18.67;;;9.30;;
73670;SDS011;61968;48.178;11.566;2023-03-01T08:13:54;23.02;;;9.38;;
73670;SDS011;61968;48.178;11.566;2023-03-01T08:16:21;15.18;;;8.02;;
73670;SDS011;61968;48.178;11.566;2023-03-01T08:18:47;16.45;;;8.90;;
73670;SDS011;61968;48.178;11.566;2023-03-01T08:21:15;15.70;;;7.97;;
73670;SDS011;61968;48.178;11.566;2023-03-01T08:23:44;21.13;;;9.50;;
73670;SDS011;61968;48.178;11.566;2023-03-01T08:26:11;18.90;;;9.38;;
73670;SDS011;61968;48.178;11.566;2023-03-01T08:28:39;17.58;;;9.02;;
73670;SDS011;61968;48.178;11.566;2023-03-01T08:31:13;19.33;;;10.27;;
73670;SDS011;61968;48.178;11.566;2023-03-01T08:33:40;14.80;;;7.65;;
73670;SDS011;61968;48.178;11.566;2023-03-01T08:36:07;16.98;;;8.52;;
73670;SDS011;61968;48.178;11.566;2023-03-01T08:38:33;18.15;;;9.10;;
73670;SDS011;61968;48.178;11.566;2023-03-01T08:41:02;17.27;;;9.07;;
73670;SDS011;61968;48.178;11.566;2023-03-01T08:43:29;21.70;;;9.48;;
73670;SDS011;61968;48.178;11.566;2023-03-01T08:45:56;20.38;;;9.52;;
73670;SDS011;61968;48.178;11.566;2023-03-01T08:48:22;15.60;;;8.32;;
73670;SDS011;61968;48.178;11.566;2023-03-01T08:50:49;20.67;;;8.93;;
73670;SDS011;61968;48.178;11.566;2023-03-01T08:53:16;17.85;;;9.63;;
73670;SDS011;61968;48.178;11.566;2023-03-01T08:55:43;23.60;;;9.90;;
73670;SDS011;61968;48.178;11.566;2023-03-01T08:58:10;18.67;;;8.88;;
73670;SDS011;61968;48.178;11.566;2023-03-01T09:00:37;19.40;;;10.15;;
73670;SDS011;61968;48.178;11.566;2023-03-01T09:03:03;20.35;;;9.57;;
73670;SDS011;61968;48.178;11.566;2023-03-01T09:05:30;23.23;;;9.00;;
73670;SDS011;61968;48.178;11.566;2023-03-01T09:07:57;16.85;;;8.57;;
73670;SDS011;61968;48.178;11.566;2023-03-01T09:10:24;19.83;;;8.90;;
73670;SDS011;61968;48.178;11.566;2023-03-01T09:12:51;18.85;;;8.60;;
73670;SDS011;61968;48.178;11.566;2023-03-01T09:15:19;24.60;;;9.00;;
73670;SDS011;61968;48.178;11.566;2023-03-01T09:17:45;19.95;;;9.25;;
73670;SDS011;61968;48.178;11.566;2023-03-01T09:20:11;17.75;;;8.80;;
73670;SDS011;61968;48.178;11.566;2023-03-01T09:22:38;21.17;;;9.18;;
73670;SDS011;61968;48.178;11.566;2023-03-01T09:25:05;21.98;;;9.88;;
73670;SDS011;61968;48.178;11.566;2023-03-01T09:27:32;21.75;;;9.38;;
73670;SDS011;61968;48.178;11.566;2023-03-01T09:29:58;20.30;;;9.27;;
73670;SDS011;61968;48.178;11.566;2023-03-01T09:32:26;22.70;;;9.13;;
73670;SDS011;61968;48.178;11.566;2023-03-01T09:34:52;17.83;;;8.18;;
73670;SDS011;61968;48.178;11.566;2023-03-01T09:37:29;17.98;;;8.63;;
73670;SDS011;61968;48.178;11.566;2023-03-01T09:39:57;24.20;;;9.82;;
73670;SDS011;61968;48.178;11.566;2023-03-01T09:42:23;20.35;;;9.55;;
73670;SDS011;61968;48.178;11.566;2023-03-01T09:44:51;22.42;;;8.80;;
73670;SDS011;61968;48.178;11.566;2023-03-01T09:47:23;17.27;;;8.52;;
73670;SDS011;61968;48.178;11.566;2023-03-01T09:49:56;19.30;;;8.65;;
73670;SDS011;61968;48.178;11.566;2023-03-01T09:52:29;17.25;;;9.27;;
73670;SDS011;61968;48.178;11.566;2023-03-01T09:55:00;15.75;;;8.50;;
73670;SDS011;61968;48.178;11.566;2023-03-01T09:57:33;15.77;;;7.82;;
73670;SDS011;61968;48.178;11.566;2023-03-01T10:00:11;17.60;;;8.77;;
73670;SDS011;61968;48.178;11.566;2023-03-01T10:02:45;14.00;;;7.30;;
73670;SDS011;61968;48.178;11.566;2023-03-01T10:05:21;19.70;;;10.00;;
73670;SDS011;61968;48.178;11.566;2023-03-01T10:07:59;18.10;;;8.35;;
73670;SDS011;61968;48.178;11.566;2023-03-01T10:10:36;15.73;;;8.70;;
73670;SDS011;61968;48.178;11.566;2023-03-01T10:13:08;19.27;;;9.93;;
73670;SDS011;61968;48.178;11.566;2023-03-01T10:15:40;19.20;;;9.02;;
73670;SDS011;61968;48.178;11.566;2023-03-01T10:18:11;20.75;;;10.00;;
73670;SDS011;61968;48.178;11.566;2023-03-01T10:20:45;17.75;;;8.43;;
73670;SDS011;61968;48.178;11.566;2023-03-01T10:23:17;18.08;;;8.55;;
73670;SDS011;61968;48.178;11.566;2023-03-01T10:25:46;21.45;;;10.63;;
73670;SDS011;61968;48.178;11.566;2023-03-01T10:28:25;23.05;;;9.63;;
73670;SDS011;61968;48.178;11.566;2023-03-01T10:30:56;17.48;;;9.43;;
73670;SDS011;61968;48.178;11.566;2023-03-01T10:33:24;22.27;;;10.45;;
73670;SDS011;61968;48.178;11.566;2023-03-01T10:35:54;22.55;;;10.13;;
73670;SDS011;61968;48.178;11.566;2023-03-01T10:38:21;21.55;;;9.77;;
73670;SDS011;61968;48.178;11.566;2023-03-01T10:40:52;20.02;;;9.68;;
73670;SDS011;61968;48.178;11.566;2023-03-01T10:43:21;24.58;;;10.23;;
73670;SDS011;61968;48.178;11.566;2023-03-01T10:45:49;22.92;;;10.23;;
73670;SDS011;61968;48.178;11.566;2023-03-01T10:48:17;20.23;;;10.00;;
73670;SDS011;61968;48.178;11.566;2023-03-01T10:50:46;25.17;;;9.45;;
73670;SDS011;61968;48.178;11.566;2023-03-01T10:53:23;21.90;;;10.57;;
73670;SDS011;61968;48.178;11.566;2023-03-01T10:55:58;19.08;;;10.38;;
73670;SDS011;61968;48.178;11.566;2023-03-01T10:58:27;20.05;;;9.73;;
73670;SDS011;61968;48.178;11.566;2023-03-01T11:00:55;16.83;;;8.43;;
73670;SDS011;61968;48.178;11.566;2023-03-01T11:03:23;22.20;;;9.85;;
73670;SDS011;61968;48.178;11.566;2023-03-01T11:06:02;24.40;;;10.38;;
73670;SDS011;61968;48.178;11.566;2023-03-01T11:08:39;23.73;;;11.35;;
73670;SDS011;61968;48.178;11.566;2023-03-01T11:11:15;21.50;;;10.60;;
73670;SDS011;61968;48.178;11.566;2023-03-01T11:13:50;21.55;;;9.32;;
73670;SDS011;61968;48.178;11.566;2023-03-01T11:19:16;20.35;;;10.80;;
73670;SDS011;61968;48.178;11.566;2023-03-01T11:21:55;21.48;;;9.75;;
73670;SDS011;61968;48.178;11.566;2023-03-01T11:24:29;21.15;;;9.77;;
73670;SDS011;61968;48.178;11.566;2023-03-01T11:27:00;21.75;;;10.75;;
73670;SDS011;61968;48.178;11.566;2023-03-01T11:29:31;22.30;;;10.50;;
73670;SDS011;61968;48.178;11.566;2023-03-01T11:32:03;18.08;;;10.20;;
73670;SDS011;61968;48.178;11.566;2023-03-01T11:34:36;23.35;;;10.23;;
73670;SDS011;61968;48.178;11.566;2023-03-01T11:37:16;18.83;;;9.25;;
73670;SDS011;61968;48.178;11.566;2023-03-01T11:39:53;19.88;;;10.18;;
73670;SDS011;61968;48.178;11.566;2023-03-01T11:42:25;21.27;;;10.25;;
73670;SDS011;61968;48.178;11.566;2023-03-01T11:45:02;26.15;;;11.60;;
73670;SDS011;61968;48.178;11.566;2023-03-01T11:47:38;22.05;;;11.32;;
73670;SDS011;61968;48.178;11.566;2023-03-01T11:50:15;20.40;;;10.57;;
73670;SDS011;61968;48.178;11.566;2023-03-01T11:52:57;18.58;;;9.25;;
73670;SDS011;61968;48.178;11.566;2023-03-01T11:55:40;18.40;;;10.15;;
73670;SDS011;61968;48.178;11.566;2023-03-01T12:01:27;22.30;;;10.32;;
73670;SDS011;61968;48.178;11.566;2023-03-01T12:04:10;22.42;;;11.18;;
73670;SDS011;61968;48.178;11.566;2023-03-01T12:06:56;22.90;;;10.68;;
73670;SDS011;61968;48.178;11.566;2023-03-01T12:12:26;22.02;;;9.57;;
73670;SDS011;61968;48.178;11.566;2023-03-01T12:20:58;19.15;;;9.35;;
73670;SDS011;61968;48.178;11.566;2023-03-01T12:23:46;20.00;;;10.57;;
73670;SDS011;61968;48.178;11.566;2023-03-01T12:26:31;25.45;;;10.68;;
73670;SDS011;61968;48.178;11.566;2023-03-01T12:29:15;27.67;;;11.50;;
73670;SDS011;61968;48.178;11.566;2023-03-01T12:31:54;21.77;;;10.77;;
73670;SDS011;61968;48.178;11.566;2023-03-01T12:34:38;22.48;;;10.35;;
73670;SDS011;61968;48.178;11.566;2023-03-01T12:37:22;25.05;;;10.55;;
73670;SDS011;61968;48.178;11.566;2023-03-01T12:39:59;25.48;;;11.57;;
73670;SDS011;61968;48.178;11.566;2023-03-01T12:42:47;24.13;;;11.23;;
73670;SDS011;61968;48.178;11.566;2023-03-01T12:45:42;19.25;;;9.77;;
73670;SDS011;61968;48.178;11.566;2023-03-01T12:48:20;22.40;;;12.35;;
73670;SDS011;61968;48.178;11.566;2023-03-01T12:50:57;21.00;;;9.90;;
73670;SDS011;61968;48.178;11.566;2023-03-01T12:53:28;20.48;;;11.23;;
73670;SDS011;61968;48.178;11.566;2023-03-01T12:55:59;19.02;;;10.38;;
73670;SDS011;61968;48.178;11.566;2023-03-01T12:58:29;20.25;;;10.02;;
73670;SDS011;61968;48.178;11.566;2023-03-01T13:01:05;22.65;;;10.43;;
73670;SDS011;61968;48.178;11.566;2023-03-01T13:06:41;20.02;;;11.13;;
73670;SDS011;61968;48.178;11.566;2023-03-01T13:09:14;19.60;;;11.57;;
73670;SDS011;61968;48.178;11.566;2023-03-01T13:11:49;22.33;;;10.40;;
73670;SDS011;61968;48.178;11.566;2023-03-01T13:17:02;22.90;;;11.57;;
73670;SDS011;61968;48.178;11.566;2023-03-01T13:19:28;21.65;;;12.18;;
73670;SDS011;61968;48.178;11.566;2023-03-01T13:21:57;17.67;;;10.35;;
73670;SDS011;61968;48.178;11.566;2023-03-01T13:24:25;22.77;;;12.52;;
73670;SDS011;61968;48.178;11.566;2023-03-01T13:29:55;23.88;;;10.82;;
73670;SDS011;61968;48.178;11.566;2023-03-01T13:32:26;20.35;;;11.48;;
73670;SDS011;61968;48.178;11.566;2023-03-01T13:34:58;23.45;;;10.63;;
73670;SDS011;61968;48.178;11.566;2023-03-01T13:37:26;18.55;;;10.48;;
73670;SDS011;61968;48.178;11.566;2023-03-01T13:39:58;18.58;;;10.63;;
73670;SDS011;61968;48.178;11.566;2023-03-01T13:42:40;20.30;;;10.50;;
73670;SDS011;61968;48.178;11.566;2023-03-01T13:45:16;21.15;;;10.60;;
73670;SDS011;61968;48.178;11.566;2023-03-01T13:47:46;19.85;;;10.93;;
73670;SDS011;61968;48.178;11.566;2023-03-01T13:50:17;24.67;;;11.38;;
73670;SDS011;61968;48.178;11.566;2023-03-01T13:52:48;23.23;;;11.70;;
73670;SDS011;61968;48.178;11.566;2023-03-01T13:55:18;17.35;;;10.82;;
73670;SDS011;61968;48.178;11.566;2023-03-01T13:57:48;27.23;;;10.05;;
73670;SDS011;61968;48.178;11.566;2023-03-01T14:00:26;21.17;;;11.15;;
73670;SDS011;61968;48.178;11.566;2023-03-01T14:03:08;18.48;;;9.82;;
73670;SDS011;61968;48.178;11.566;2023-03-01T14:05:36;21.23;;;11.70;;
73670;SDS011;61968;48.178;11.566;2023-03-01T14:08:04;18.15;;;10.45;;
73670;SDS011;61968;48.178;11.566;2023-03-01T14:10:32;19.77;;;9.90;;
73670;SDS011;61968;48.178;11.566;2023-03-01T14:13:06;18.88;;;9.60;;
73670;SDS011;61968;48.178;11.566;2023-03-01T14:15:47;20.25;;;10.07;;
73670;SDS011;61968;48.178;11.566;2023-03-01T14:18:28;21.00;;;9.95;;
73670;SDS011;61968;48.178;11.566;2023-03-01T14:21:06;16.48;;;8.75;;
73670;SDS011;61968;48.178;11.566;2023-03-01T14:23:34;21.38;;;9.18;;
73670;SDS011;61968;48.178;11.566;2023-03-01T14:26:01;17.23;;;9.48;;
73670;SDS011;61968;48.178;11.566;2023-03-01T14:28:29;19.85;;;10.07;;
73670;SDS011;61968;48.178;11.566;2023-03-01T14:30:59;22.05;;;10.38;;
73670;SDS011;61968;48.178;11.566;2023-03-01T14:33:29;21.77;;;10.55;;
73670;SDS011;61968;48.178;11.566;2023-03-01T14:35:59;18.33;;;10.18;;
73670;SDS011;61968;48.178;11.566;2023-03-01T14:38:33;19.33;;;9.63;;
73670;SDS011;61968;48.178;11.566;2023-03-01T14:41:04;19.77;;;10.85;;
73670;SDS011;61968;48.178;11.566;2023-03-01T14:43:33;16.92;;;9.50;;
73670;SDS011;61968;48.178;11.566;2023-03-01T14:46:01;19.35;;;9.95;;
73670;SDS011;61968;48.178;11.566;2023-03-01T14:48:29;18.77;;;9.65;;
73670;SDS011;61968;48.178;11.566;2023-03-01T14:50:57;16.38;;;9.70;;
73670;SDS011;61968;48.178;11.566;2023-03-01T14:53:25;18.33;;;9.75;;
73670;SDS011;61968;48.178;11.566;2023-03-01T14:55:55;18.63;;;10.25;;
73670;SDS011;61968;48.178;11.566;2023-03-01T14:58:27;15.48;;;9.80;;
73670;SDS011;61968;48.178;11.566;2023-03-01T15:00:54;26.00;;;10.20;;
73670;SDS011;61968;48.178;11.566;2023-03-01T15:03:26;18.08;;;10.07;;
73670;SDS011;61968;48.178;11.566;2023-03-01T15:05:57;13.88;;;8.75;;
73670;SDS011;61968;48.178;11.566;2023-03-01T15:08:25;16.30;;;9.23;;
73670;SDS011;61968;48.178;11.566;2023-03-01T15:11:02;14.98;;;9.05;;
73670;SDS011;61968;48.178;11.566;2023-03-01T15:13:31;16.48;;;7.72;;
73670;SDS011;61968;48.178;11.566;2023-03-01T15:18:47;18.88;;;9.15;;
73670;SDS011;61968;48.178;11.566;2023-03-01T15:21:17;16.70;;;8.23;;
73670;SDS011;61968;48.178;11.566;2023-03-01T15:23:48;20.35;;;9.27;;
73670;SDS011;61968;48.178;11.566;2023-03-01T15:26:23;18.30;;;9.63;;